Stockholm, Maine
Current Conditions -  °F | °C
As of 2:54 AM on Friday 31 Oct 2014 (Local Time) from KCAR Reporting Station
Overcast Overcast  
Wind Chill: 38°   Ceiling: 5500
Heat Index: 38°   Visibility: 10mi
Dew Point: 28°   Wind: 0mph
Humidity: 68%   Direction: NA
Pressure: 29.96"   Gusts: NA
Location:  47.04°N, 68.14°W
Report Text: KCAR 310654Z AUTO 00000KT 10SM OVC055 03/M02 A2996 RMK AO2 SLP153 T00331022
Loading
Personal Weather Stations






























Interactive Weather Map New forecast layout! Learn more

10-Day Weather Forecast

Advertisements
Track Severe Weather on mobile